createdAt,value
2022-11-17T00:01:58.807Z,9.90
2022-11-17T00:04:31.215Z,9.90
2022-11-17T00:07:01.880Z,9.90
2022-11-17T00:09:28.806Z,9.90
2022-11-17T00:12:15.465Z,9.90
2022-11-17T00:14:45.176Z,9.90
2022-11-17T00:17:13.873Z,9.90
2022-11-17T00:19:59.523Z,9.90
2022-11-17T00:22:34.318Z,9.90
2022-11-17T00:25:01.434Z,9.80
2022-11-17T00:27:31.691Z,9.80
2022-11-17T00:29:59.626Z,9.80
2022-11-17T00:32:45.450Z,9.90
2022-11-17T00:35:16.152Z,9.90
2022-11-17T00:38:03.765Z,9.90
2022-11-17T00:40:31.143Z,10.00
2022-11-17T00:43:02.691Z,10.00
2022-11-17T00:45:32.715Z,10.00
2022-11-17T00:48:01.865Z,10.10
2022-11-17T00:50:33.246Z,10.10
2022-11-17T00:53:03.191Z,10.10
2022-11-17T00:55:30.784Z,10.10
2022-11-17T00:57:57.778Z,10.20
2022-11-17T01:00:24.723Z,10.20
2022-11-17T01:02:56.675Z,10.20
2022-11-17T01:05:27.898Z,10.20
2022-11-17T01:07:59.763Z,10.20
2022-11-17T01:10:27.682Z,10.20
2022-11-17T01:12:55.179Z,10.20
2022-11-17T01:15:26.888Z,10.30
2022-11-17T01:17:53.855Z,10.30
2022-11-17T01:20:21.453Z,10.30
2022-11-17T01:22:53.939Z,10.30
2022-11-17T01:25:23.335Z,10.30
2022-11-17T01:27:58.555Z,10.30
2022-11-17T01:30:28.739Z,10.30
2022-11-17T01:32:55.805Z,10.30
2022-11-17T01:35:22.907Z,10.30
2022-11-17T01:37:49.863Z,10.30
2022-11-17T01:40:18.369Z,10.40
2022-11-17T01:42:49.781Z,10.40
2022-11-17T01:45:22.481Z,10.30
2022-11-17T01:47:56.677Z,10.30
2022-11-17T01:50:47.174Z,10.30
2022-11-17T01:53:19.800Z,10.30
2022-11-17T01:55:56.331Z,10.30
2022-11-17T01:58:36.935Z,10.30
2022-11-17T02:01:04.415Z,10.30
2022-11-17T02:03:35.313Z,10.30
2022-11-17T02:06:12.998Z,10.30
2022-11-17T02:08:45.025Z,10.30
2022-11-17T02:11:20.505Z,10.30
2022-11-17T02:13:48.236Z,10.30
2022-11-17T02:16:19.296Z,10.30
2022-11-17T02:18:49.656Z,10.30
2022-11-17T02:21:59.245Z,10.30
2022-11-17T02:25:12.217Z,10.30
2022-11-17T02:27:55.541Z,10.20
2022-11-17T02:30:29.710Z,10.20
2022-11-17T02:33:07.345Z,10.20
2022-11-17T02:36:11.818Z,10.20
2022-11-17T02:39:20.658Z,10.30
2022-11-17T02:41:56.936Z,10.30
2022-11-17T02:44:39.863Z,10.30
2022-11-17T02:47:27.973Z,10.20
2022-11-17T02:50:05.630Z,10.30
2022-11-17T02:52:34.729Z,10.30
2022-11-17T02:55:10.703Z,10.40
2022-11-17T02:57:40.486Z,10.40
2022-11-17T03:00:12.429Z,10.50
2022-11-17T03:03:03.694Z,10.50
2022-11-17T03:06:27.210Z,10.50
2022-11-17T03:09:03.225Z,10.50
2022-11-17T03:11:51.871Z,10.50
2022-11-17T03:14:47.951Z,10.50
2022-11-17T03:17:23.994Z,10.50
2022-11-17T03:20:04.569Z,10.60
2022-11-17T03:23:06.013Z,10.60
2022-11-17T03:25:37.556Z,10.70
2022-11-17T03:28:08.890Z,10.70
2022-11-17T03:30:41.153Z,10.80
2022-11-17T03:33:16.599Z,10.80
2022-11-17T03:35:58.194Z,10.80
2022-11-17T03:38:29.330Z,10.80
2022-11-17T03:41:00.213Z,10.90
2022-11-17T03:43:28.437Z,10.90
2022-11-17T03:46:01.946Z,11.00
2022-11-17T03:48:51.800Z,11.00
2022-11-17T03:51:25.599Z,11.00
2022-11-17T03:53:55.883Z,11.10
2022-11-17T03:56:43.154Z,11.10
2022-11-17T03:59:32.690Z,11.10
2022-11-17T04:02:02.170Z,11.10
2022-11-17T04:04:49.003Z,11.10
2022-11-17T04:07:16.113Z,11.10
2022-11-17T04:09:42.981Z,11.10
2022-11-17T04:12:28.209Z,11.10
2022-11-17T04:15:13.589Z,11.10
2022-11-17T04:17:40.496Z,11.10
2022-11-17T04:20:11.149Z,11.10
2022-11-17T04:22:40.493Z,11.10
2022-11-17T04:25:07.798Z,11.10
2022-11-17T04:27:53.554Z,11.10
2022-11-17T04:30:22.700Z,11.10
2022-11-17T04:32:49.528Z,11.20
2022-11-17T04:35:16.444Z,11.10
2022-11-17T04:37:46.300Z,11.20
2022-11-17T04:40:15.397Z,11.10
2022-11-17T04:42:42.230Z,11.20
2022-11-17T04:45:12.104Z,11.20
2022-11-17T04:47:38.914Z,11.20
2022-11-17T04:50:08.761Z,11.20
2022-11-17T04:52:38.099Z,11.30
2022-11-17T04:55:05.460Z,11.30
2022-11-17T04:57:34.828Z,11.40
2022-11-17T05:00:06.790Z,11.40
2022-11-17T05:02:35.965Z,11.40
2022-11-17T05:05:04.160Z,11.50
2022-11-17T05:07:33.499Z,11.50
2022-11-17T05:10:01.181Z,11.50
2022-11-17T05:12:46.512Z,11.50
2022-11-17T05:15:33.524Z,11.60
2022-11-17T05:18:02.954Z,11.60
2022-11-17T05:20:32.798Z,11.60
2022-11-17T05:23:18.589Z,11.60
2022-11-17T05:25:45.446Z,11.60
2022-11-17T05:28:12.963Z,11.60
2022-11-17T05:30:39.845Z,11.70
2022-11-17T05:33:06.704Z,11.70
2022-11-17T05:35:33.557Z,11.70
2022-11-17T05:38:00.389Z,11.70
2022-11-17T05:40:29.344Z,11.70
2022-11-17T05:42:58.708Z,11.70
2022-11-17T05:45:25.547Z,11.80
2022-11-17T05:47:52.385Z,11.80
2022-11-17T05:50:19.276Z,11.80
2022-11-17T05:52:46.161Z,11.80
2022-11-17T05:55:15.585Z,11.70
2022-11-17T05:57:46.012Z,11.70
2022-11-17T06:00:13.842Z,11.60
2022-11-17T06:03:02.876Z,11.60
2022-11-17T06:05:31.831Z,11.60
2022-11-17T06:08:00.849Z,11.70
2022-11-17T06:10:30.820Z,11.70
2022-11-17T06:12:57.745Z,11.70
2022-11-17T06:15:27.241Z,11.70
2022-11-17T06:18:12.857Z,11.70
2022-11-17T06:20:45.232Z,11.70
2022-11-17T06:23:12.410Z,11.80
2022-11-17T06:25:40.023Z,11.80
2022-11-17T06:28:15.591Z,11.80
2022-11-17T06:30:47.169Z,11.80
2022-11-17T06:33:19.801Z,11.70
2022-11-17T06:35:47.906Z,11.70
2022-11-17T06:38:17.413Z,11.70
2022-11-17T06:40:44.284Z,11.70
2022-11-17T06:43:16.901Z,11.70
2022-11-17T06:45:47.174Z,11.70
2022-11-17T06:48:17.119Z,11.60
2022-11-17T06:50:47.076Z,11.70
2022-11-17T06:53:16.998Z,11.70
2022-11-17T06:55:49.325Z,11.70
2022-11-17T06:58:18.830Z,11.70
2022-11-17T07:00:45.897Z,11.70
2022-11-17T07:03:15.448Z,11.70
2022-11-17T07:05:46.495Z,11.70
2022-11-17T07:08:14.369Z,11.70
2022-11-17T07:10:49.027Z,11.70
2022-11-17T07:13:16.273Z,11.80
2022-11-17T07:15:45.473Z,11.80
2022-11-17T07:18:12.395Z,11.80
2022-11-17T07:20:39.357Z,11.80
2022-11-17T07:23:06.257Z,11.90
2022-11-17T07:25:33.189Z,11.90
2022-11-17T07:28:00.588Z,12.00
2022-11-17T07:30:30.039Z,12.10
2022-11-17T07:33:00.482Z,12.10
2022-11-17T07:35:28.135Z,12.20
2022-11-17T07:38:01.694Z,12.30
2022-11-17T07:40:29.788Z,12.30
2022-11-17T07:42:56.835Z,12.40
2022-11-17T07:45:28.668Z,12.40
2022-11-17T07:48:01.013Z,12.50
2022-11-17T07:50:28.435Z,12.60
2022-11-17T07:52:57.418Z,12.60
2022-11-17T07:55:27.993Z,12.70
2022-11-17T07:57:57.842Z,12.70
2022-11-17T08:00:26.870Z,12.80
2022-11-17T08:02:53.941Z,13.00
2022-11-17T08:05:21.646Z,13.10
2022-11-17T08:08:01.890Z,13.10
2022-11-17T08:10:32.302Z,13.10
2022-11-17T08:13:00.969Z,13.10
2022-11-17T08:15:29.545Z,13.10
2022-11-17T08:17:59.226Z,13.00
2022-11-17T08:20:29.181Z,13.00
2022-11-17T08:22:56.833Z,13.00
2022-11-17T08:25:26.676Z,12.90
2022-11-17T08:27:58.012Z,13.00
2022-11-17T08:30:26.368Z,13.00
2022-11-17T08:32:54.776Z,12.90
2022-11-17T08:35:25.076Z,12.90
2022-11-17T08:37:53.029Z,12.90
2022-11-17T08:40:23.287Z,12.90
2022-11-17T08:43:00.590Z,12.90
2022-11-17T08:45:28.057Z,12.90
2022-11-17T08:47:56.782Z,12.90
2022-11-17T08:50:26.338Z,12.80
2022-11-17T08:52:53.664Z,12.80
2022-11-17T08:55:20.671Z,12.80
2022-11-17T08:57:47.644Z,12.80
2022-11-17T09:00:19.954Z,12.80
2022-11-17T09:02:47.156Z,12.80
2022-11-17T09:05:18.597Z,12.80
2022-11-17T09:07:48.141Z,12.80
2022-11-17T09:10:17.608Z,12.90
2022-11-17T09:12:44.671Z,12.90
2022-11-17T09:15:11.624Z,12.90
2022-11-17T09:17:43.418Z,13.00
2022-11-17T09:20:13.161Z,13.00
2022-11-17T09:22:40.105Z,13.00
2022-11-17T09:25:12.980Z,13.10
2022-11-17T09:27:40.890Z,13.10
2022-11-17T09:30:08.535Z,13.10
2022-11-17T09:32:40.791Z,13.00
2022-11-17T09:35:09.443Z,13.00
2022-11-17T09:37:36.379Z,13.00
2022-11-17T09:40:04.722Z,13.00
2022-11-17T09:42:37.914Z,13.00
2022-11-17T09:45:12.260Z,12.90
2022-11-17T09:48:40.276Z,12.90
2022-11-17T09:51:12.069Z,12.80
2022-11-17T09:54:19.935Z,12.80
2022-11-17T09:56:48.089Z,12.80
2022-11-17T09:59:19.883Z,12.70
2022-11-17T10:01:46.902Z,12.70
2022-11-17T10:04:18.676Z,12.70
2022-11-17T10:06:52.858Z,12.80
2022-11-17T10:09:28.738Z,12.80
2022-11-17T10:12:13.445Z,12.80
2022-11-17T10:14:41.198Z,12.80
2022-11-17T10:17:14.146Z,12.90
2022-11-17T10:19:41.352Z,12.90
2022-11-17T10:22:08.147Z,13.00
2022-11-17T10:24:35.043Z,13.00
2022-11-17T10:27:15.815Z,13.00
2022-11-17T10:30:00.978Z,13.00
2022-11-17T10:32:34.960Z,13.10
2022-11-17T10:35:40.410Z,13.10
2022-11-17T10:38:30.620Z,13.20
2022-11-17T10:41:02.996Z,13.20
2022-11-17T10:43:36.787Z,13.30
2022-11-17T10:46:16.620Z,13.30
2022-11-17T10:49:00.858Z,13.40
2022-11-17T10:51:33.127Z,13.40
2022-11-17T10:54:26.340Z,13.40
2022-11-17T10:56:56.326Z,13.50
2022-11-17T10:59:33.406Z,13.50
2022-11-17T11:02:26.337Z,13.50
2022-11-17T11:05:21.416Z,13.60
2022-11-17T11:07:48.294Z,13.60
2022-11-17T11:10:34.848Z,13.60
2022-11-17T11:13:21.263Z,13.70
2022-11-17T11:15:48.275Z,13.70
2022-11-17T11:18:18.627Z,13.70
2022-11-17T11:21:23.655Z,13.70
2022-11-17T11:24:24.154Z,13.70
2022-11-17T11:27:23.977Z,13.70
2022-11-17T11:30:10.681Z,13.70
2022-11-17T11:32:59.077Z,13.70
2022-11-17T11:36:11.374Z,13.80
2022-11-17T11:39:06.375Z,13.80
2022-11-17T11:41:53.832Z,13.80
2022-11-17T11:44:48.590Z,13.90
2022-11-17T11:47:36.541Z,13.90
2022-11-17T11:50:14.681Z,14.00
2022-11-17T11:52:56.325Z,14.00
2022-11-17T11:55:34.160Z,14.00
2022-11-17T11:58:13.336Z,14.10
2022-11-17T12:00:42.916Z,14.10
2022-11-17T12:03:36.741Z,14.10
2022-11-17T12:06:41.850Z,14.10
2022-11-17T12:09:32.440Z,14.10
2022-11-17T12:12:04.002Z,14.10
2022-11-17T12:14:33.129Z,14.10
2022-11-17T12:17:26.241Z,14.10
2022-11-17T12:20:07.471Z,14.20
2022-11-17T12:22:38.318Z,14.20
2022-11-17T12:25:14.206Z,14.20
2022-11-17T12:27:43.636Z,14.20
2022-11-17T12:30:37.632Z,14.20
2022-11-17T12:33:08.381Z,14.20
2022-11-17T12:35:42.471Z,14.30
2022-11-17T12:38:15.536Z,14.30
2022-11-17T12:40:56.772Z,14.30
2022-11-17T12:43:30.132Z,14.30
2022-11-17T12:46:36.495Z,14.30
2022-11-17T12:49:30.322Z,14.30
2022-11-17T12:52:03.610Z,14.30
2022-11-17T12:54:54.755Z,14.30
2022-11-17T12:57:28.127Z,14.30
2022-11-17T13:00:00.048Z,14.30
2022-11-17T13:02:57.192Z,14.30
2022-11-17T13:05:27.915Z,14.30
2022-11-17T13:08:15.662Z,14.30
2022-11-17T13:10:45.060Z,14.30
2022-11-17T13:13:24.290Z,14.40
2022-11-17T13:15:56.058Z,14.40
2022-11-17T13:18:39.484Z,14.40
2022-11-17T13:21:25.472Z,14.40
2022-11-17T13:23:53.598Z,14.50
2022-11-17T13:26:38.152Z,14.50
2022-11-17T13:29:21.327Z,14.50
2022-11-17T13:31:50.601Z,14.60
2022-11-17T13:34:22.152Z,14.60
2022-11-17T13:37:00.117Z,14.60
2022-11-17T13:39:28.284Z,14.60
2022-11-17T13:42:00.303Z,14.60
2022-11-17T13:44:28.615Z,14.60
2022-11-17T13:46:56.127Z,14.60
2022-11-17T13:49:39.525Z,14.60
2022-11-17T13:52:45.343Z,14.60
2022-11-17T13:55:22.417Z,14.60
2022-11-17T13:58:00.936Z,14.60
2022-11-17T14:00:34.210Z,14.60
2022-11-17T14:03:07.003Z,14.60
2022-11-17T14:05:34.439Z,14.60
2022-11-17T14:08:28.797Z,14.60
2022-11-17T14:11:13.598Z,14.50
2022-11-17T14:13:48.369Z,14.50
2022-11-17T14:16:34.077Z,14.50
2022-11-17T14:19:08.169Z,14.50
2022-11-17T14:22:04.026Z,14.50
2022-11-17T14:24:32.890Z,14.50
2022-11-17T14:27:00.732Z,14.50
2022-11-17T14:29:31.739Z,14.50
2022-11-17T14:32:00.801Z,14.60
2022-11-17T14:34:30.017Z,14.60
2022-11-17T14:36:57.126Z,14.60
2022-11-17T14:39:24.012Z,14.60
2022-11-17T14:41:51.640Z,14.60
2022-11-17T14:44:18.558Z,14.60
2022-11-17T14:46:45.463Z,14.60
2022-11-17T14:49:12.897Z,14.50
2022-11-17T14:51:40.217Z,14.50
2022-11-17T14:54:07.428Z,14.50
2022-11-17T14:56:36.582Z,14.40
2022-11-17T14:59:06.091Z,14.40
2022-11-17T15:01:38.426Z,14.40
2022-11-17T15:04:34.631Z,14.30
2022-11-17T15:06:58.021Z,14.30
2022-11-17T15:09:25.023Z,14.30
2022-11-17T15:11:55.005Z,14.30
2022-11-17T15:14:22.607Z,14.30
2022-11-17T15:16:49.536Z,14.20
2022-11-17T15:19:16.537Z,14.20
2022-11-17T15:21:47.962Z,14.20
2022-11-17T15:24:15.423Z,14.20
2022-11-17T15:26:42.696Z,14.10
2022-11-17T15:29:15.288Z,14.10
2022-11-17T15:31:43.212Z,14.10
2022-11-17T15:34:18.736Z,14.10
2022-11-17T15:36:50.375Z,14.10
2022-11-17T15:39:22.316Z,14.10
2022-11-17T15:41:50.616Z,14.10
2022-11-17T15:44:18.966Z,14.00
2022-11-17T15:46:47.676Z,14.00
2022-11-17T15:49:18.192Z,14.00
2022-11-17T15:51:45.428Z,14.00
2022-11-17T15:54:19.963Z,13.90
2022-11-17T15:56:48.140Z,13.90
2022-11-17T15:59:15.524Z,13.90
2022-11-17T16:01:42.771Z,13.80
2022-11-17T16:04:18.169Z,13.80
2022-11-17T16:06:48.753Z,13.80
2022-11-17T16:09:18.403Z,13.70
2022-11-17T16:11:47.802Z,13.70
2022-11-17T16:14:15.169Z,13.60
2022-11-17T16:16:46.760Z,13.60
2022-11-17T16:19:14.235Z,13.50
2022-11-17T16:21:41.511Z,13.40
2022-11-17T16:24:11.930Z,13.40
2022-11-17T16:26:38.949Z,13.30
2022-11-17T16:29:10.488Z,13.20
2022-11-17T16:31:40.482Z,13.10
2022-11-17T16:34:15.694Z,13.10
2022-11-17T16:36:44.025Z,13.00
2022-11-17T16:39:20.288Z,12.90
2022-11-17T16:41:47.447Z,12.90
2022-11-17T16:44:17.986Z,12.80
2022-11-17T16:46:47.892Z,12.80
2022-11-17T16:49:18.090Z,12.80
2022-11-17T16:51:53.851Z,12.70
2022-11-17T16:54:21.396Z,12.70
2022-11-17T16:56:48.784Z,12.70
2022-11-17T16:59:18.878Z,12.60
2022-11-17T17:01:46.201Z,12.70
2022-11-17T17:04:14.082Z,12.60
2022-11-17T17:06:45.480Z,12.60
2022-11-17T17:09:15.931Z,12.60
2022-11-17T17:11:43.147Z,12.60
2022-11-17T17:14:13.493Z,12.60
2022-11-17T17:16:40.634Z,12.50
2022-11-17T17:19:10.022Z,12.50
2022-11-17T17:21:41.374Z,12.50
2022-11-17T17:24:12.929Z,12.50
2022-11-17T17:26:42.172Z,12.40
2022-11-17T17:29:14.593Z,12.50
2022-11-17T17:31:44.696Z,12.50
2022-11-17T17:34:12.952Z,12.50
2022-11-17T17:36:42.542Z,12.50
2022-11-17T17:39:17.610Z,12.50
2022-11-17T17:41:45.973Z,12.50
2022-11-17T17:44:18.990Z,12.50
2022-11-17T17:46:46.985Z,12.50
2022-11-17T17:49:14.655Z,12.60
2022-11-17T17:51:44.599Z,12.50
2022-11-17T17:54:18.261Z,12.50
2022-11-17T17:56:48.620Z,12.60
2022-11-17T17:59:16.571Z,12.60
2022-11-17T18:01:48.128Z,12.60
2022-11-17T18:04:16.429Z,12.60
2022-11-17T18:06:47.124Z,12.60
2022-11-17T18:09:20.417Z,12.60
2022-11-17T18:11:50.959Z,12.60
2022-11-17T18:14:24.715Z,12.60
2022-11-17T18:16:52.792Z,12.60
2022-11-17T18:19:20.145Z,12.60
2022-11-17T18:21:47.466Z,12.60
2022-11-17T18:24:16.546Z,12.60
2022-11-17T18:26:46.549Z,12.60
2022-11-17T18:29:19.662Z,12.50
2022-11-17T18:31:47.775Z,12.50
2022-11-17T18:34:21.387Z,12.50
2022-11-17T18:36:50.037Z,12.50
2022-11-17T18:39:19.895Z,12.50
2022-11-17T18:41:49.031Z,12.50
2022-11-17T18:44:18.497Z,12.50
2022-11-17T18:46:46.027Z,12.50
2022-11-17T18:49:16.005Z,12.50
2022-11-17T18:51:46.173Z,12.50
2022-11-17T18:54:14.557Z,12.50
2022-11-17T18:56:44.615Z,12.50
2022-11-17T18:59:12.049Z,12.50
2022-11-17T19:01:44.712Z,12.50
2022-11-17T19:04:15.890Z,12.50
2022-11-17T19:06:45.667Z,12.40
2022-11-17T19:09:15.729Z,12.40
2022-11-17T19:11:46.042Z,12.40
2022-11-17T19:14:17.750Z,12.40
2022-11-17T19:16:45.324Z,12.40
2022-11-17T19:19:13.649Z,12.40
2022-11-17T19:21:43.213Z,12.40
2022-11-17T19:24:13.967Z,12.40
2022-11-17T19:26:42.860Z,12.40
2022-11-17T19:29:17.467Z,12.40
2022-11-17T19:31:49.101Z,12.40
2022-11-17T19:34:16.260Z,12.40
2022-11-17T19:36:44.583Z,12.30
2022-11-17T19:39:12.729Z,12.30
2022-11-17T19:41:39.953Z,12.40
2022-11-17T19:44:08.984Z,12.30
2022-11-17T19:46:38.975Z,12.40
2022-11-17T19:49:09.950Z,12.30
2022-11-17T19:51:41.159Z,12.30
2022-11-17T19:54:14.761Z,12.20
2022-11-17T19:56:41.858Z,12.20
2022-11-17T19:59:15.207Z,12.20
2022-11-17T20:01:48.338Z,12.20
2022-11-17T20:04:18.296Z,12.10
2022-11-17T20:06:45.374Z,12.10
2022-11-17T20:09:14.603Z,12.00
2022-11-17T20:11:42.536Z,12.10
2022-11-17T20:14:10.648Z,12.10
2022-11-17T20:16:39.953Z,12.10
2022-11-17T20:19:09.363Z,12.10
2022-11-17T20:21:36.395Z,12.10
2022-11-17T20:24:06.014Z,12.10
2022-11-17T20:26:40.857Z,12.10
2022-11-17T20:29:11.868Z,12.10
2022-11-17T20:31:41.394Z,12.10
2022-11-17T20:34:14.738Z,12.10
2022-11-17T20:36:41.685Z,12.10
2022-11-17T20:39:11.265Z,12.10
2022-11-17T20:41:38.142Z,12.10
2022-11-17T20:44:23.791Z,12.10
2022-11-17T20:46:59.687Z,12.10
2022-11-17T20:49:31.177Z,12.10
2022-11-17T20:51:58.122Z,12.10
2022-11-17T20:54:25.155Z,12.10
2022-11-17T20:56:54.597Z,12.10
2022-11-17T20:59:24.118Z,12.00
2022-11-17T21:01:53.714Z,12.10
2022-11-17T21:04:23.160Z,12.10
2022-11-17T21:06:50.110Z,12.10
2022-11-17T21:09:19.495Z,12.10
2022-11-17T21:11:58.470Z,12.10
2022-11-17T21:14:27.197Z,12.10
2022-11-17T21:17:00.424Z,12.10
2022-11-17T21:19:28.038Z,12.10
2022-11-17T21:21:55.546Z,12.10
2022-11-17T21:24:27.894Z,12.10
2022-11-17T21:26:57.095Z,12.10
2022-11-17T21:29:24.106Z,12.10
2022-11-17T21:31:53.359Z,12.10
2022-11-17T21:34:22.720Z,12.10
2022-11-17T21:36:53.742Z,12.20
2022-11-17T21:39:23.913Z,12.20
2022-11-17T21:41:54.828Z,12.20
2022-11-17T21:44:26.050Z,12.20
2022-11-17T21:46:58.225Z,12.10
2022-11-17T21:49:28.106Z,12.10
2022-11-17T21:51:58.029Z,12.10
2022-11-17T21:54:27.452Z,12.10
2022-11-17T21:56:59.277Z,12.10
2022-11-17T21:59:28.429Z,12.10
2022-11-17T22:02:00.105Z,12.00
2022-11-17T22:04:29.447Z,12.00
2022-11-17T22:07:00.294Z,12.00
2022-11-17T22:09:27.909Z,12.00
2022-11-17T22:11:58.710Z,12.00
2022-11-17T22:14:25.830Z,12.00
2022-11-17T22:16:55.309Z,12.00
2022-11-17T22:19:27.370Z,12.00
2022-11-17T22:21:55.924Z,12.00
2022-11-17T22:24:26.054Z,12.00
2022-11-17T22:26:54.124Z,12.00
2022-11-17T22:29:22.687Z,12.00
2022-11-17T22:31:53.765Z,12.00
2022-11-17T22:34:21.192Z,12.00
2022-11-17T22:36:50.172Z,12.00
2022-11-17T22:39:18.334Z,12.10
2022-11-17T22:41:45.495Z,12.10
2022-11-17T22:44:18.409Z,12.00
2022-11-17T22:46:49.077Z,12.00
2022-11-17T22:49:16.321Z,12.00
2022-11-17T22:52:04.934Z,12.00
2022-11-17T22:54:32.395Z,12.10
2022-11-17T22:57:04.358Z,12.10
2022-11-17T22:59:31.322Z,12.10
2022-11-17T23:01:58.532Z,12.10
2022-11-17T23:04:26.030Z,12.10
2022-11-17T23:06:53.118Z,12.10
2022-11-17T23:09:20.190Z,12.20
2022-11-17T23:11:49.666Z,12.20
2022-11-17T23:14:17.744Z,12.10
2022-11-17T23:16:44.641Z,12.10
2022-11-17T23:19:13.548Z,12.10
2022-11-17T23:21:44.486Z,12.10
2022-11-17T23:24:14.866Z,12.10
2022-11-17T23:26:45.015Z,12.10
2022-11-17T23:29:14.013Z,12.10
2022-11-17T23:31:45.744Z,12.10
2022-11-17T23:34:13.004Z,12.00
2022-11-17T23:36:42.006Z,12.00
2022-11-17T23:39:09.100Z,12.00
2022-11-17T23:41:40.712Z,12.00
2022-11-17T23:44:07.526Z,11.90
2022-11-17T23:46:37.002Z,12.00
2022-11-17T23:49:04.308Z,12.00
2022-11-17T23:51:31.475Z,12.00
2022-11-17T23:54:02.494Z,12.00
2022-11-17T23:56:34.708Z,12.00
2022-11-17T23:59:08.501Z,12.00
